Portuguese Bend, California
Current Conditions -  °F | °C
As of 8:47 AM on Sunday 21 Dec 2014 (Local Time) from KTOA Reporting Station
Haze Haze  
Wind Chill: 57°   Ceiling: Unl
Heat Index: 57°   Visibility: 6mi
Dew Point: 52°   Wind: 0mph
Humidity: 82%   Direction: NA
Pressure: 30.16"   Gusts: NA
Location:  33.7772°N, 118.368°W
Report Text: KTOA 211647Z 00000KT 6SM HZ FEW015 SCT200 14/11 A3016
Loading
Personal Weather Stations






























Interactive Weather Map New forecast layout! Learn more

10-Day Weather Forecast

Advertisements
Track Severe Weather on mobile